createdAt,value
2022-08-17T00:04:19.416Z,21.05
2022-08-17T00:09:23.745Z,20.99
2022-08-17T00:14:26.550Z,20.91
2022-08-17T00:19:29.582Z,20.81
2022-08-17T00:24:33.749Z,20.73
2022-08-17T00:29:36.561Z,20.63
2022-08-17T00:34:39.619Z,20.54
2022-08-17T00:39:43.830Z,20.47
2022-08-17T00:44:47.317Z,20.43
2022-08-17T00:49:50.162Z,20.40
2022-08-17T00:54:56.696Z,20.36
2022-08-17T01:00:03.790Z,20.30
2022-08-17T01:05:08.597Z,20.24
2022-08-17T01:10:59.084Z,20.16
2022-08-17T01:15:39.925Z,20.13
2022-08-17T01:20:50.442Z,20.07
2022-08-17T01:25:57.185Z,20.02
2022-08-17T01:31:02.775Z,19.94
2022-08-17T01:36:07.113Z,19.88
2022-08-17T01:41:15.582Z,19.86
2022-08-17T01:46:23.615Z,19.78
2022-08-17T01:51:29.342Z,19.70
2022-08-17T01:56:35.742Z,19.67
2022-08-17T02:01:39.015Z,19.64
2022-08-17T02:06:52.568Z,19.62
2022-08-17T02:12:37.094Z,19.58
2022-08-17T02:17:23.738Z,19.54
2022-08-17T02:22:26.660Z,19.50
2022-08-17T02:27:31.538Z,19.45
2022-08-17T02:32:34.495Z,19.41
2022-08-17T02:37:37.765Z,19.35
2022-08-17T02:42:44.022Z,19.28
2022-08-17T02:47:47.831Z,19.18
2022-08-17T02:53:05.917Z,19.11
2022-08-17T02:58:12.191Z,19.07
2022-08-17T03:03:18.836Z,19.06
2022-08-17T03:08:23.360Z,19.03
2022-08-17T03:13:27.806Z,19.02
2022-08-17T03:18:30.637Z,19.00
2022-08-17T03:23:33.954Z,18.95
2022-08-17T03:28:39.096Z,18.92
2022-08-17T03:33:41.902Z,18.90
2022-08-17T03:38:45.111Z,18.87
2022-08-17T03:43:49.329Z,18.86
2022-08-17T03:49:09.726Z,18.83
2022-08-17T03:54:30.984Z,18.80
2022-08-17T03:59:36.097Z,18.80
2022-08-17T04:04:40.527Z,18.75
2022-08-17T04:09:44.206Z,18.74
2022-08-17T04:14:53.540Z,18.75
2022-08-17T04:19:58.051Z,18.78
2022-08-17T04:25:01.275Z,18.79
2022-08-17T04:30:07.990Z,18.76
2022-08-17T04:35:11.321Z,18.78
2022-08-17T04:40:28.317Z,18.79
2022-08-17T04:45:32.830Z,18.88
2022-08-17T04:50:36.194Z,18.94
2022-08-17T04:55:39.043Z,19.01
2022-08-17T05:00:43.451Z,19.10
2022-08-17T05:05:49.412Z,19.19
2022-08-17T05:10:52.402Z,19.29
2022-08-17T05:15:58.697Z,19.38
2022-08-17T05:21:01.655Z,19.49
2022-08-17T05:26:05.223Z,19.58
2022-08-17T05:31:12.272Z,19.73
2022-08-17T05:36:41.862Z,19.85
2022-08-17T05:41:39.130Z,20.02
2022-08-17T05:46:49.185Z,20.19
2022-08-17T05:52:13.691Z,20.37
2022-08-17T05:57:43.554Z,20.50
2022-08-17T06:03:19.714Z,20.73
2022-08-17T06:08:33.258Z,20.97
2022-08-17T06:13:50.883Z,21.20
2022-08-17T06:19:01.295Z,21.50
2022-08-17T06:24:08.464Z,21.75
2022-08-17T06:29:21.048Z,22.04
2022-08-17T06:34:25.390Z,22.36
2022-08-17T06:39:36.311Z,22.73
2022-08-17T06:44:51.105Z,23.16
2022-08-17T06:50:03.742Z,23.57
2022-08-17T06:55:09.446Z,23.93
2022-08-17T07:00:24.221Z,24.24
2022-08-17T07:05:34.737Z,24.49
2022-08-17T07:10:42.602Z,24.73
2022-08-17T07:15:47.153Z,25.05
2022-08-17T07:20:55.940Z,25.35
2022-08-17T07:26:05.518Z,25.63
2022-08-17T07:31:13.289Z,25.85
2022-08-17T07:36:29.952Z,26.12
2022-08-17T07:41:57.335Z,26.53
2022-08-17T07:47:19.707Z,26.75
2022-08-17T07:52:51.440Z,26.89
2022-08-17T07:57:57.358Z,27.02
2022-08-17T08:03:13.416Z,27.27
2022-08-17T08:08:26.924Z,27.46
2022-08-17T08:13:32.222Z,27.59
2022-08-17T08:18:53.387Z,27.86
2022-08-17T08:24:10.887Z,28.08
2022-08-17T08:29:23.660Z,28.27
2022-08-17T08:34:58.606Z,28.30
2022-08-17T08:40:03.835Z,28.27
2022-08-17T08:45:14.721Z,28.30
2022-08-17T08:50:38.265Z,28.65
2022-08-17T08:55:53.024Z,28.70
2022-08-17T09:00:59.262Z,28.71
2022-08-17T09:06:33.408Z,28.65
2022-08-17T09:12:02.081Z,28.65
2022-08-17T09:17:12.661Z,28.74
2022-08-17T09:22:31.410Z,29.05
2022-08-17T09:27:47.658Z,29.59
2022-08-17T09:32:55.403Z,29.72
2022-08-17T09:38:06.437Z,29.74
2022-08-17T09:43:18.710Z,29.82
2022-08-17T09:48:28.551Z,29.84
2022-08-17T09:53:32.428Z,29.95
2022-08-17T09:58:51.026Z,29.92
2022-08-17T10:04:20.330Z,29.82
2022-08-17T10:09:45.607Z,29.82
2022-08-17T10:15:08.197Z,30.07
2022-08-17T10:20:16.523Z,30.38
2022-08-17T10:25:54.261Z,30.77
2022-08-17T10:31:34.131Z,30.79
2022-08-17T10:36:39.079Z,31.09
2022-08-17T10:41:46.701Z,31.15
2022-08-17T10:47:07.119Z,30.96
2022-08-17T10:52:43.056Z,30.91
2022-08-17T10:57:47.132Z,31.12
2022-08-17T11:02:53.523Z,31.22
2022-08-17T11:08:15.508Z,31.43
2022-08-17T11:13:33.948Z,31.48
2022-08-17T11:18:57.749Z,31.39
2022-08-17T11:24:14.640Z,31.47
2022-08-17T11:29:26.611Z,31.97
2022-08-17T11:34:34.602Z,31.93
2022-08-17T11:39:55.803Z,32.11
2022-08-17T11:45:04.298Z,32.24
2022-08-17T11:50:43.971Z,32.67
2022-08-17T11:56:04.637Z,33.13
2022-08-17T12:01:09.651Z,33.48
2022-08-17T12:06:32.081Z,33.89
2022-08-17T12:11:58.789Z,33.63
2022-08-17T12:17:09.156Z,33.25
2022-08-17T12:22:18.881Z,33.19
2022-08-17T12:27:47.644Z,33.00
2022-08-17T12:32:51.047Z,32.79
2022-08-17T12:37:57.593Z,33.23
2022-08-17T12:43:03.192Z,32.88
2022-08-17T12:48:09.325Z,33.05
2022-08-17T12:53:15.904Z,33.48
2022-08-17T12:58:22.153Z,33.35
2022-08-17T13:03:36.399Z,33.46
2022-08-17T13:08:42.862Z,33.11
2022-08-17T13:13:49.173Z,33.07
2022-08-17T13:18:55.519Z,33.55
2022-08-17T13:24:04.478Z,33.76
2022-08-17T13:29:09.604Z,33.70
2022-08-17T13:34:31.850Z,33.92
2022-08-17T13:39:42.730Z,33.44
2022-08-17T13:44:45.677Z,33.46
2022-08-17T13:49:49.647Z,33.31
2022-08-17T13:54:55.661Z,33.05
2022-08-17T14:00:10.978Z,32.85
2022-08-17T14:05:13.825Z,32.81
2022-08-17T14:10:19.929Z,32.74
2022-08-17T14:15:55.102Z,32.84
2022-08-17T14:20:49.613Z,33.20
2022-08-17T14:25:53.833Z,33.02
2022-08-17T14:30:56.641Z,32.92
2022-08-17T14:36:00.126Z,32.87
2022-08-17T14:41:05.410Z,32.66
2022-08-17T14:46:08.274Z,32.66
2022-08-17T14:51:11.950Z,32.45
2022-08-17T14:56:16.185Z,32.40
2022-08-17T15:01:21.679Z,32.47
2022-08-17T15:06:25.034Z,32.49
2022-08-17T15:11:29.379Z,32.51
2022-08-17T15:16:35.978Z,32.39
2022-08-17T15:21:38.802Z,32.12
2022-08-17T15:26:43.502Z,32.06
2022-08-17T15:31:46.411Z,32.05
2022-08-17T15:36:49.750Z,32.05
2022-08-17T15:41:58.354Z,32.00
2022-08-17T15:47:01.697Z,31.93
2022-08-17T15:52:16.756Z,31.79
2022-08-17T15:57:21.363Z,31.53
2022-08-17T16:03:46.253Z,31.30
2022-08-17T16:07:52.078Z,31.08
2022-08-17T16:12:58.193Z,31.04
2022-08-17T16:18:01.064Z,31.09
2022-08-17T16:23:04.162Z,31.07
2022-08-17T16:28:08.871Z,30.99
2022-08-17T16:33:12.428Z,30.89
2022-08-17T16:38:15.226Z,30.75
2022-08-17T16:43:20.178Z,30.59
2022-08-17T16:48:23.363Z,30.44
2022-08-17T16:53:26.738Z,30.16
2022-08-17T16:58:30.972Z,29.96
2022-08-17T17:03:34.061Z,29.64
2022-08-17T17:08:44.609Z,29.52
2022-08-17T17:13:54.753Z,29.31
2022-08-17T17:19:13.873Z,29.28
2022-08-17T17:24:22.823Z,29.11
2022-08-17T17:29:48.822Z,28.86
2022-08-17T17:34:58.745Z,28.73
2022-08-17T17:40:06.724Z,28.58
2022-08-17T17:45:18.154Z,28.36
2022-08-17T17:50:27.571Z,28.09
2022-08-17T17:55:40.544Z,27.95
2022-08-17T18:00:53.187Z,27.86
2022-08-17T18:06:14.899Z,27.73
2022-08-17T18:11:35.240Z,27.62
2022-08-17T18:16:42.638Z,27.47
2022-08-17T18:21:52.138Z,27.30
2022-08-17T18:26:57.845Z,27.20
2022-08-17T18:32:33.554Z,27.07
2022-08-17T18:37:40.701Z,26.99
2022-08-17T18:42:46.322Z,26.89
2022-08-17T18:47:56.517Z,26.93
2022-08-17T18:53:26.691Z,26.75
2022-08-17T18:58:33.048Z,26.61
2022-08-17T19:03:44.212Z,26.55
2022-08-17T19:08:47.072Z,26.48
2022-08-17T19:13:56.826Z,26.47
2022-08-17T19:19:10.256Z,26.43
2022-08-17T19:24:19.399Z,26.39
2022-08-17T19:29:27.923Z,26.32
2022-08-17T19:34:35.637Z,26.14
2022-08-17T19:39:48.058Z,26.03
2022-08-17T19:45:02.843Z,25.88
2022-08-17T19:50:13.565Z,25.83
2022-08-17T19:55:24.419Z,25.84
2022-08-17T20:00:27.513Z,25.81
2022-08-17T20:06:01.328Z,25.80
2022-08-17T20:11:03.743Z,25.62
2022-08-17T20:16:07.714Z,25.54
2022-08-17T20:21:19.730Z,25.48
2022-08-17T20:26:28.713Z,25.37
2022-08-17T20:31:47.200Z,25.27
2022-08-17T20:37:03.112Z,25.19
2022-08-17T20:42:12.527Z,25.16
2022-08-17T20:47:26.977Z,25.08
2022-08-17T20:52:48.920Z,24.93
2022-08-17T20:57:52.082Z,24.87
2022-08-17T21:03:50.943Z,24.82
2022-08-17T21:08:59.329Z,24.76
2022-08-17T21:14:10.169Z,24.69
2022-08-17T21:19:30.924Z,24.58
2022-08-17T21:24:49.566Z,24.43
2022-08-17T21:30:12.251Z,24.29
2022-08-17T21:35:31.031Z,24.21
2022-08-17T21:40:35.457Z,24.20
2022-08-17T21:45:42.945Z,24.23
2022-08-17T21:50:57.690Z,24.09
2022-08-17T21:56:02.199Z,24.03
2022-08-17T22:01:23.469Z,24.05
2022-08-17T22:06:29.695Z,24.05
2022-08-17T22:11:49.434Z,23.92
2022-08-17T22:17:07.749Z,23.77
2022-08-17T22:22:22.492Z,23.65
2022-08-17T22:27:49.865Z,23.54
2022-08-17T22:32:52.791Z,23.51
2022-08-17T22:37:55.875Z,23.44
2022-08-17T22:43:03.036Z,23.43
2022-08-17T22:48:06.325Z,23.37
2022-08-17T22:53:34.344Z,23.37
2022-08-17T22:59:02.401Z,23.35
2022-08-17T23:04:07.875Z,23.33
2022-08-17T23:09:10.789Z,23.27
2022-08-17T23:14:16.314Z,23.25
2022-08-17T23:19:22.183Z,23.18
2022-08-17T23:24:28.800Z,23.12
2022-08-17T23:29:33.041Z,22.92
2022-08-17T23:34:38.643Z,22.85
2022-08-17T23:39:41.656Z,22.77
2022-08-17T23:44:45.914Z,22.67
2022-08-17T23:49:48.720Z,22.64
2022-08-17T23:54:57.521Z,22.49
